Airfield :
LOGIN :

Register | Disclaimer

   EN    FR    IT 

 










Legend :    VFR   Marginal VFR   IFR   Intensive IFR   Very Intensive IFR
Visi :
Ceiling :
>= 8 km
>= 3000ft
5 to 8 km
1000 to 3000 ft
1500m to 5 km
500 to 1000 ft
800 to 1500m
200 to 500 ft
< 800m
< 200 ft
Symbols :   Thunderstorms  Fog  Heavy snow  Heavy precipitations  Wind > 20 kt
SIGMETs :     Misc.  Thunderstorms  Icing  Turbulence  Mountain Waves  Volcanic Ashes






- Airport Elevation : 63 ft
- IATA code : BZM


EHWO - Woensdrecht Airbase

CURRENT METAR :
  • 011432Z AUTO 04007KT 360V080 9999 NCD 06/03 Q1027 BLU

EXPIRED METARs :
  • 011425Z AUTO 04006KT 360V070 9999 NCD 07/03 Q1027 BLU NOSIG
  • 011355Z AUTO 05007KT 010V090 9999 NCD 07/03 Q1027 BLU NOSIG
  • 011336Z AUTO 03006KT 310V100 9999 NCD 07/04 Q1027 BLU NOSIG
  • 011325Z AUTO 03006KT 320V090 9000 BR NCD 07/04 Q1027 BLU TEMPO SCT010
  • 011255Z AUTO 04006KT 350V080 9999 NCD 07/03 Q1027 BLU TEMPO SCT010
  • 011225Z AUTO 04005KT 340V080 8000 BR NCD 07/04 Q1027 BLU TEMPO SCT010
  • 011155Z AUTO 04006KT 340V070 8000 BR FEW013 07/04 Q1028 BLU TEMPO SCT010

TAF AMD TAF EHWO
Valid from the 01 at 10:00 until the 01 at 22:00 UTC


011117Z 0110/0122 04005KT 5000 FEW010 SCT025
TEMPO 0111/0114 SCT010
BECMG 0116/0118 BKN014 OVC020
TEMPO 0118/0122 SCT009 BKN012



MET'MAP, your aeronautical weather chart ! - Copyright ORBIFLY December 2007 - Disclaimer

ORBIFLY MET'MAP TEAM :

Programming & Development : Alexandra Zaïnal
Original concept : Baudouin d'Aumeries
Technical & hardware support : Manuel Goepfert
Assistance : Marc-Olivier Méhu




SOURCES & CREDITS :

   NOAA